sensor_id;sensor_type;location;lat;lon;timestamp;P1;durP1;ratioP1;P2;durP2;ratioP2
76667;SDS011;65585;51.166;16.922;2023-10-09T00:00:54;11.30;;;6.07;;
76667;SDS011;65585;51.166;16.922;2023-10-09T00:07:29;10.27;;;5.63;;
76667;SDS011;65585;51.166;16.922;2023-10-09T00:13:44;12.57;;;6.38;;
76667;SDS011;65585;51.166;16.922;2023-10-09T00:17:08;13.77;;;6.10;;
76667;SDS011;65585;51.166;16.922;2023-10-09T00:19:56;11.95;;;6.13;;
76667;SDS011;65585;51.166;16.922;2023-10-09T00:22:35;10.27;;;6.13;;
76667;SDS011;65585;51.166;16.922;2023-10-09T00:25:19;11.98;;;6.13;;
76667;SDS011;65585;51.166;16.922;2023-10-09T00:35:21;10.35;;;5.60;;
76667;SDS011;65585;51.166;16.922;2023-10-09T00:38:51;8.85;;;4.97;;
76667;SDS011;65585;51.166;16.922;2023-10-09T00:41:46;8.82;;;5.20;;
76667;SDS011;65585;51.166;16.922;2023-10-09T00:44:24;9.75;;;5.75;;
76667;SDS011;65585;51.166;16.922;2023-10-09T00:47:50;8.77;;;5.30;;
76667;SDS011;65585;51.166;16.922;2023-10-09T00:57:31;10.45;;;5.28;;
76667;SDS011;65585;51.166;16.922;2023-10-09T01:00:58;10.00;;;4.95;;
76667;SDS011;65585;51.166;16.922;2023-10-09T01:04:03;12.48;;;5.60;;
76667;SDS011;65585;51.166;16.922;2023-10-09T01:07:06;9.80;;;5.63;;
76667;SDS011;65585;51.166;16.922;2023-10-09T01:09:57;7.90;;;5.45;;
76667;SDS011;65585;51.166;16.922;2023-10-09T01:12:42;9.70;;;4.47;;
76667;SDS011;65585;51.166;16.922;2023-10-09T01:15:23;9.88;;;5.43;;
76667;SDS011;65585;51.166;16.922;2023-10-09T01:20:47;9.10;;;4.95;;
76667;SDS011;65585;51.166;16.922;2023-10-09T01:23:23;9.10;;;4.45;;
76667;SDS011;65585;51.166;16.922;2023-10-09T01:26:04;11.57;;;5.25;;
76667;SDS011;65585;51.166;16.922;2023-10-09T01:31:58;8.32;;;5.05;;
76667;SDS011;65585;51.166;16.922;2023-10-09T01:34:59;6.95;;;4.70;;
76667;SDS011;65585;51.166;16.922;2023-10-09T01:37:41;8.77;;;5.15;;
76667;SDS011;65585;51.166;16.922;2023-10-09T01:41:17;6.18;;;4.22;;
76667;SDS011;65585;51.166;16.922;2023-10-09T01:43:58;8.52;;;4.43;;
76667;SDS011;65585;51.166;16.922;2023-10-09T01:46:42;7.43;;;4.43;;
76667;SDS011;65585;51.166;16.922;2023-10-09T01:49:50;9.00;;;4.45;;
76667;SDS011;65585;51.166;16.922;2023-10-09T01:52:34;6.57;;;4.47;;
76667;SDS011;65585;51.166;16.922;2023-10-09T01:55:11;6.97;;;4.40;;
76667;SDS011;65585;51.166;16.922;2023-10-09T01:58:08;7.68;;;4.38;;
76667;SDS011;65585;51.166;16.922;2023-10-09T02:00:58;7.50;;;4.88;;
76667;SDS011;65585;51.166;16.922;2023-10-09T02:03:43;6.90;;;4.63;;
76667;SDS011;65585;51.166;16.922;2023-10-09T02:09:36;6.88;;;4.80;;
76667;SDS011;65585;51.166;16.922;2023-10-09T02:12:18;6.22;;;4.32;;
76667;SDS011;65585;51.166;16.922;2023-10-09T02:15:15;6.80;;;4.88;;
76667;SDS011;65585;51.166;16.922;2023-10-09T02:18:20;7.78;;;4.55;;
76667;SDS011;65585;51.166;16.922;2023-10-09T02:24:35;8.98;;;4.20;;
76667;SDS011;65585;51.166;16.922;2023-10-09T02:27:36;10.82;;;4.57;;
76667;SDS011;65585;51.166;16.922;2023-10-09T02:30:52;8.93;;;5.07;;
76667;SDS011;65585;51.166;16.922;2023-10-09T02:38:57;7.43;;;4.47;;
76667;SDS011;65585;51.166;16.922;2023-10-09T02:41:35;7.60;;;4.75;;
76667;SDS011;65585;51.166;16.922;2023-10-09T02:44:21;7.78;;;4.25;;
76667;SDS011;65585;51.166;16.922;2023-10-09T02:47:12;6.22;;;4.07;;
76667;SDS011;65585;51.166;16.922;2023-10-09T02:50:09;7.75;;;4.13;;
76667;SDS011;65585;51.166;16.922;2023-10-09T02:52:40;6.90;;;3.80;;
76667;SDS011;65585;51.166;16.922;2023-10-09T02:55:09;5.47;;;3.60;;
76667;SDS011;65585;51.166;16.922;2023-10-09T02:57:53;10.20;;;3.90;;
76667;SDS011;65585;51.166;16.922;2023-10-09T03:00:33;6.45;;;3.58;;
76667;SDS011;65585;51.166;16.922;2023-10-09T03:03:05;6.97;;;3.72;;
76667;SDS011;65585;51.166;16.922;2023-10-09T03:05:37;5.97;;;3.20;;
76667;SDS011;65585;51.166;16.922;2023-10-09T03:08:10;5.72;;;3.72;;
76667;SDS011;65585;51.166;16.922;2023-10-09T03:10:42;5.05;;;3.72;;
76667;SDS011;65585;51.166;16.922;2023-10-09T03:13:08;5.65;;;3.20;;
76667;SDS011;65585;51.166;16.922;2023-10-09T03:15:34;5.15;;;3.80;;
76667;SDS011;65585;51.166;16.922;2023-10-09T03:18:02;6.35;;;3.00;;
76667;SDS011;65585;51.166;16.922;2023-10-09T03:20:31;5.78;;;3.20;;
76667;SDS011;65585;51.166;16.922;2023-10-09T03:22:57;6.05;;;2.90;;
76667;SDS011;65585;51.166;16.922;2023-10-09T03:25:24;6.68;;;3.28;;
76667;SDS011;65585;51.166;16.922;2023-10-09T03:27:53;6.47;;;3.45;;
76667;SDS011;65585;51.166;16.922;2023-10-09T03:30:21;7.60;;;3.65;;
76667;SDS011;65585;51.166;16.922;2023-10-09T03:32:50;4.95;;;3.15;;
76667;SDS011;65585;51.166;16.922;2023-10-09T03:35:18;6.45;;;2.97;;
76667;SDS011;65585;51.166;16.922;2023-10-09T03:37:50;4.65;;;2.88;;
76667;SDS011;65585;51.166;16.922;2023-10-09T03:40:18;10.13;;;3.08;;
76667;SDS011;65585;51.166;16.922;2023-10-09T03:42:45;7.63;;;3.63;;
76667;SDS011;65585;51.166;16.922;2023-10-09T03:45:11;7.63;;;2.90;;
76667;SDS011;65585;51.166;16.922;2023-10-09T03:47:56;7.63;;;2.83;;
76667;SDS011;65585;51.166;16.922;2023-10-09T03:50:37;5.82;;;3.15;;
76667;SDS011;65585;51.166;16.922;2023-10-09T03:53:06;6.97;;;3.35;;
76667;SDS011;65585;51.166;16.922;2023-10-09T03:55:36;5.10;;;2.90;;
76667;SDS011;65585;51.166;16.922;2023-10-09T03:58:08;5.00;;;2.80;;
76667;SDS011;65585;51.166;16.922;2023-10-09T04:00:37;4.47;;;3.00;;
76667;SDS011;65585;51.166;16.922;2023-10-09T04:03:10;6.40;;;2.95;;
76667;SDS011;65585;51.166;16.922;2023-10-09T04:05:37;4.15;;;2.70;;
76667;SDS011;65585;51.166;16.922;2023-10-09T04:08:06;4.70;;;2.85;;
76667;SDS011;65585;51.166;16.922;2023-10-09T04:10:39;4.68;;;3.13;;
76667;SDS011;65585;51.166;16.922;2023-10-09T04:13:17;5.30;;;3.00;;
76667;SDS011;65585;51.166;16.922;2023-10-09T04:15:49;5.03;;;2.95;;
76667;SDS011;65585;51.166;16.922;2023-10-09T04:18:15;5.25;;;2.90;;
76667;SDS011;65585;51.166;16.922;2023-10-09T04:20:41;6.03;;;2.95;;
76667;SDS011;65585;51.166;16.922;2023-10-09T04:23:10;4.70;;;2.63;;
76667;SDS011;65585;51.166;16.922;2023-10-09T04:25:41;6.78;;;3.00;;
76667;SDS011;65585;51.166;16.922;2023-10-09T04:28:08;3.38;;;2.72;;
76667;SDS011;65585;51.166;16.922;2023-10-09T04:30:38;5.85;;;3.20;;
76667;SDS011;65585;51.166;16.922;2023-10-09T04:33:12;5.53;;;3.38;;
76667;SDS011;65585;51.166;16.922;2023-10-09T04:36:06;4.90;;;3.40;;
76667;SDS011;65585;51.166;16.922;2023-10-09T04:38:54;5.85;;;3.33;;
76667;SDS011;65585;51.166;16.922;2023-10-09T04:41:30;4.30;;;2.80;;
76667;SDS011;65585;51.166;16.922;2023-10-09T04:44:19;5.05;;;3.15;;
76667;SDS011;65585;51.166;16.922;2023-10-09T04:46:49;4.05;;;2.50;;
76667;SDS011;65585;51.166;16.922;2023-10-09T04:49:34;8.10;;;3.08;;
76667;SDS011;65585;51.166;16.922;2023-10-09T04:52:19;4.85;;;2.78;;
76667;SDS011;65585;51.166;16.922;2023-10-09T04:54:58;4.05;;;2.78;;
76667;SDS011;65585;51.166;16.922;2023-10-09T04:57:30;7.18;;;3.17;;
76667;SDS011;65585;51.166;16.922;2023-10-09T05:00:06;6.57;;;3.42;;
76667;SDS011;65585;51.166;16.922;2023-10-09T05:02:51;4.30;;;3.10;;
76667;SDS011;65585;51.166;16.922;2023-10-09T05:05:31;5.32;;;3.22;;
76667;SDS011;65585;51.166;16.922;2023-10-09T05:10:48;5.13;;;2.90;;
76667;SDS011;65585;51.166;16.922;2023-10-09T05:13:23;5.40;;;2.95;;
76667;SDS011;65585;51.166;16.922;2023-10-09T05:16:05;5.30;;;3.00;;
76667;SDS011;65585;51.166;16.922;2023-10-09T05:18:46;4.40;;;3.13;;
76667;SDS011;65585;51.166;16.922;2023-10-09T05:21:23;6.18;;;2.97;;
76667;SDS011;65585;51.166;16.922;2023-10-09T05:24:04;6.25;;;3.25;;
76667;SDS011;65585;51.166;16.922;2023-10-09T05:26:43;6.10;;;3.30;;
76667;SDS011;65585;51.166;16.922;2023-10-09T05:29:25;8.18;;;3.50;;
76667;SDS011;65585;51.166;16.922;2023-10-09T05:31:58;7.65;;;3.58;;
76667;SDS011;65585;51.166;16.922;2023-10-09T05:34:31;6.82;;;3.53;;
76667;SDS011;65585;51.166;16.922;2023-10-09T05:37:17;4.57;;;3.42;;
76667;SDS011;65585;51.166;16.922;2023-10-09T05:39:46;4.60;;;3.42;;
76667;SDS011;65585;51.166;16.922;2023-10-09T05:42:33;4.63;;;2.90;;
76667;SDS011;65585;51.166;16.922;2023-10-09T05:45:06;6.22;;;3.15;;
76667;SDS011;65585;51.166;16.922;2023-10-09T05:47:52;5.18;;;3.22;;
76667;SDS011;65585;51.166;16.922;2023-10-09T05:50:19;4.07;;;2.70;;
76667;SDS011;65585;51.166;16.922;2023-10-09T05:52:52;5.32;;;3.05;;
76667;SDS011;65585;51.166;16.922;2023-10-09T05:55:19;5.68;;;3.10;;
76667;SDS011;65585;51.166;16.922;2023-10-09T05:58:05;5.00;;;2.53;;
76667;SDS011;65585;51.166;16.922;2023-10-09T06:00:34;6.22;;;3.22;;
76667;SDS011;65585;51.166;16.922;2023-10-09T06:03:19;5.28;;;2.80;;
76667;SDS011;65585;51.166;16.922;2023-10-09T06:05:46;4.97;;;2.92;;
76667;SDS011;65585;51.166;16.922;2023-10-09T06:08:22;5.90;;;2.78;;
76667;SDS011;65585;51.166;16.922;2023-10-09T06:11:23;6.18;;;3.40;;
76667;SDS011;65585;51.166;16.922;2023-10-09T06:13:59;5.22;;;2.90;;
76667;SDS011;65585;51.166;16.922;2023-10-09T06:16:37;4.78;;;2.97;;
76667;SDS011;65585;51.166;16.922;2023-10-09T06:19:07;5.85;;;3.17;;
76667;SDS011;65585;51.166;16.922;2023-10-09T06:21:37;5.80;;;3.72;;
76667;SDS011;65585;51.166;16.922;2023-10-09T06:24:04;6.25;;;3.10;;
76667;SDS011;65585;51.166;16.922;2023-10-09T06:26:40;5.20;;;3.00;;
76667;SDS011;65585;51.166;16.922;2023-10-09T06:29:29;6.00;;;3.10;;
76667;SDS011;65585;51.166;16.922;2023-10-09T06:32:07;5.60;;;2.78;;
76667;SDS011;65585;51.166;16.922;2023-10-09T06:34:58;6.47;;;2.75;;
76667;SDS011;65585;51.166;16.922;2023-10-09T06:37:44;3.97;;;2.47;;
76667;SDS011;65585;51.166;16.922;2023-10-09T06:40:30;4.18;;;2.67;;
76667;SDS011;65585;51.166;16.922;2023-10-09T06:43:22;4.43;;;2.70;;
76667;SDS011;65585;51.166;16.922;2023-10-09T06:45:50;5.70;;;2.83;;
76667;SDS011;65585;51.166;16.922;2023-10-09T06:48:34;4.15;;;2.97;;
76667;SDS011;65585;51.166;16.922;2023-10-09T06:51:04;3.78;;;2.70;;
76667;SDS011;65585;51.166;16.922;2023-10-09T06:53:55;5.85;;;3.00;;
76667;SDS011;65585;51.166;16.922;2023-10-09T06:56:22;4.50;;;2.53;;
76667;SDS011;65585;51.166;16.922;2023-10-09T06:59:09;5.45;;;2.80;;
76667;SDS011;65585;51.166;16.922;2023-10-09T07:01:52;9.73;;;2.88;;
76667;SDS011;65585;51.166;16.922;2023-10-09T07:04:37;4.35;;;3.00;;
76667;SDS011;65585;51.166;16.922;2023-10-09T07:07:03;5.47;;;3.80;;
76667;SDS011;65585;51.166;16.922;2023-10-09T07:09:38;7.07;;;3.45;;
76667;SDS011;65585;51.166;16.922;2023-10-09T07:12:23;8.23;;;4.07;;
76667;SDS011;65585;51.166;16.922;2023-10-09T07:14:52;4.75;;;3.22;;
76667;SDS011;65585;51.166;16.922;2023-10-09T07:17:21;7.28;;;4.15;;
76667;SDS011;65585;51.166;16.922;2023-10-09T07:19:48;7.05;;;4.15;;
76667;SDS011;65585;51.166;16.922;2023-10-09T07:22:14;9.65;;;4.53;;
76667;SDS011;65585;51.166;16.922;2023-10-09T07:24:46;4.95;;;3.20;;
76667;SDS011;65585;51.166;16.922;2023-10-09T07:27:23;6.15;;;3.35;;
76667;SDS011;65585;51.166;16.922;2023-10-09T07:30:30;5.70;;;3.17;;
76667;SDS011;65585;51.166;16.922;2023-10-09T07:33:01;4.82;;;2.97;;
76667;SDS011;65585;51.166;16.922;2023-10-09T07:35:40;4.50;;;2.90;;
76667;SDS011;65585;51.166;16.922;2023-10-09T07:38:11;5.68;;;2.97;;
76667;SDS011;65585;51.166;16.922;2023-10-09T07:40:40;4.40;;;2.70;;
76667;SDS011;65585;51.166;16.922;2023-10-09T07:43:42;4.28;;;2.90;;
76667;SDS011;65585;51.166;16.922;2023-10-09T07:46:09;4.13;;;2.90;;
76667;SDS011;65585;51.166;16.922;2023-10-09T07:48:58;4.30;;;3.05;;
76667;SDS011;65585;51.166;16.922;2023-10-09T07:51:26;3.88;;;3.05;;
76667;SDS011;65585;51.166;16.922;2023-10-09T07:53:58;4.80;;;3.13;;
76667;SDS011;65585;51.166;16.922;2023-10-09T07:56:34;4.95;;;3.40;;
76667;SDS011;65585;51.166;16.922;2023-10-09T07:59:05;5.43;;;3.30;;
76667;SDS011;65585;51.166;16.922;2023-10-09T08:01:48;3.72;;;2.88;;
76667;SDS011;65585;51.166;16.922;2023-10-09T08:04:22;6.60;;;4.53;;
76667;SDS011;65585;51.166;16.922;2023-10-09T08:07:08;5.68;;;3.75;;
76667;SDS011;65585;51.166;16.922;2023-10-09T08:09:48;6.20;;;3.55;;
76667;SDS011;65585;51.166;16.922;2023-10-09T08:12:14;5.07;;;3.38;;
76667;SDS011;65585;51.166;16.922;2023-10-09T08:15:16;5.43;;;3.42;;
76667;SDS011;65585;51.166;16.922;2023-10-09T08:17:46;5.57;;;4.07;;
76667;SDS011;65585;51.166;16.922;2023-10-09T08:20:26;6.43;;;3.70;;
76667;SDS011;65585;51.166;16.922;2023-10-09T08:22:52;6.05;;;4.00;;
76667;SDS011;65585;51.166;16.922;2023-10-09T08:25:21;6.22;;;4.07;;
76667;SDS011;65585;51.166;16.922;2023-10-09T08:28:00;8.50;;;3.63;;
76667;SDS011;65585;51.166;16.922;2023-10-09T08:30:42;4.63;;;3.53;;
76667;SDS011;65585;51.166;16.922;2023-10-09T08:33:34;4.93;;;3.40;;
76667;SDS011;65585;51.166;16.922;2023-10-09T08:36:00;4.32;;;3.10;;
76667;SDS011;65585;51.166;16.922;2023-10-09T08:38:33;4.38;;;3.15;;
76667;SDS011;65585;51.166;16.922;2023-10-09T08:41:06;5.07;;;2.53;;
76667;SDS011;65585;51.166;16.922;2023-10-09T08:44:00;5.10;;;2.85;;
76667;SDS011;65585;51.166;16.922;2023-10-09T08:46:29;5.80;;;3.05;;
76667;SDS011;65585;51.166;16.922;2023-10-09T08:48:56;4.85;;;3.15;;
76667;SDS011;65585;51.166;16.922;2023-10-09T08:51:24;4.55;;;3.00;;
76667;SDS011;65585;51.166;16.922;2023-10-09T08:53:51;4.63;;;2.95;;
76667;SDS011;65585;51.166;16.922;2023-10-09T08:56:18;7.95;;;3.67;;
76667;SDS011;65585;51.166;16.922;2023-10-09T08:58:52;5.55;;;3.50;;
76667;SDS011;65585;51.166;16.922;2023-10-09T09:01:19;4.97;;;3.15;;
76667;SDS011;65585;51.166;16.922;2023-10-09T09:03:46;4.07;;;3.00;;
76667;SDS011;65585;51.166;16.922;2023-10-09T09:06:13;8.00;;;4.32;;
76667;SDS011;65585;51.166;16.922;2023-10-09T09:08:40;5.85;;;2.85;;
76667;SDS011;65585;51.166;16.922;2023-10-09T09:13:43;3.78;;;2.53;;
76667;SDS011;65585;51.166;16.922;2023-10-09T09:18:49;4.15;;;2.50;;
76667;SDS011;65585;51.166;16.922;2023-10-09T09:21:27;3.70;;;2.60;;
76667;SDS011;65585;51.166;16.922;2023-10-09T09:23:54;5.47;;;2.75;;
76667;SDS011;65585;51.166;16.922;2023-10-09T09:26:33;5.20;;;2.80;;
76667;SDS011;65585;51.166;16.922;2023-10-09T09:29:04;3.53;;;2.65;;
76667;SDS011;65585;51.166;16.922;2023-10-09T09:31:31;4.85;;;2.88;;
76667;SDS011;65585;51.166;16.922;2023-10-09T09:34:07;3.65;;;2.60;;
76667;SDS011;65585;51.166;16.922;2023-10-09T09:37:00;3.97;;;2.72;;
76667;SDS011;65585;51.166;16.922;2023-10-09T09:39:29;4.47;;;2.78;;
76667;SDS011;65585;51.166;16.922;2023-10-09T09:42:00;4.68;;;2.70;;
76667;SDS011;65585;51.166;16.922;2023-10-09T09:44:55;3.45;;;2.42;;
76667;SDS011;65585;51.166;16.922;2023-10-09T09:47:22;3.10;;;1.98;;
76667;SDS011;65585;51.166;16.922;2023-10-09T09:49:51;5.55;;;2.45;;
76667;SDS011;65585;51.166;16.922;2023-10-09T09:52:40;5.35;;;2.75;;
76667;SDS011;65585;51.166;16.922;2023-10-09T09:55:10;4.97;;;2.20;;
76667;SDS011;65585;51.166;16.922;2023-10-09T09:57:48;3.70;;;2.58;;
76667;SDS011;65585;51.166;16.922;2023-10-09T10:00:21;5.95;;;2.88;;
76667;SDS011;65585;51.166;16.922;2023-10-09T10:03:12;4.25;;;2.50;;
76667;SDS011;65585;51.166;16.922;2023-10-09T10:05:44;5.07;;;2.58;;
76667;SDS011;65585;51.166;16.922;2023-10-09T10:08:18;5.95;;;2.70;;
76667;SDS011;65585;51.166;16.922;2023-10-09T10:10:45;5.00;;;2.80;;
76667;SDS011;65585;51.166;16.922;2023-10-09T10:13:54;5.25;;;2.92;;
76667;SDS011;65585;51.166;16.922;2023-10-09T10:16:10;4.68;;;2.70;;
76667;SDS011;65585;51.166;16.922;2023-10-09T10:21:43;4.82;;;2.70;;
76667;SDS011;65585;51.166;16.922;2023-10-09T10:35:18;3.78;;;2.55;;
76667;SDS011;65585;51.166;16.922;2023-10-09T10:38:03;5.45;;;2.95;;
76667;SDS011;65585;51.166;16.922;2023-10-09T10:40:41;5.70;;;2.72;;
76667;SDS011;65585;51.166;16.922;2023-10-09T10:43:14;5.53;;;3.33;;
76667;SDS011;65585;51.166;16.922;2023-10-09T10:46:16;3.92;;;2.63;;
76667;SDS011;65585;51.166;16.922;2023-10-09T10:49:04;8.65;;;2.85;;
76667;SDS011;65585;51.166;16.922;2023-10-09T10:51:41;4.13;;;2.90;;
76667;SDS011;65585;51.166;16.922;2023-10-09T10:54:19;4.25;;;2.90;;
76667;SDS011;65585;51.166;16.922;2023-10-09T10:57:14;4.13;;;2.67;;
76667;SDS011;65585;51.166;16.922;2023-10-09T10:59:45;3.95;;;2.70;;
76667;SDS011;65585;51.166;16.922;2023-10-09T11:02:12;5.78;;;3.20;;
76667;SDS011;65585;51.166;16.922;2023-10-09T11:04:37;7.82;;;3.28;;
76667;SDS011;65585;51.166;16.922;2023-10-09T11:07:05;5.32;;;4.03;;
76667;SDS011;65585;51.166;16.922;2023-10-09T11:12:32;4.82;;;3.55;;
76667;SDS011;65585;51.166;16.922;2023-10-09T11:15:10;5.28;;;3.75;;
76667;SDS011;65585;51.166;16.922;2023-10-09T11:18:03;5.65;;;3.95;;
76667;SDS011;65585;51.166;16.922;2023-10-09T11:20:43;6.30;;;4.28;;
76667;SDS011;65585;51.166;16.922;2023-10-09T11:23:30;5.38;;;4.50;;
76667;SDS011;65585;51.166;16.922;2023-10-09T11:26:05;6.93;;;4.82;;
76667;SDS011;65585;51.166;16.922;2023-10-09T11:29:11;6.90;;;5.00;;
76667;SDS011;65585;51.166;16.922;2023-10-09T11:31:57;5.32;;;4.72;;
76667;SDS011;65585;51.166;16.922;2023-10-09T11:34:27;6.50;;;4.43;;
76667;SDS011;65585;51.166;16.922;2023-10-09T11:37:05;6.10;;;4.45;;
76667;SDS011;65585;51.166;16.922;2023-10-09T11:39:39;4.97;;;3.88;;
76667;SDS011;65585;51.166;16.922;2023-10-09T11:42:21;4.75;;;4.00;;
76667;SDS011;65585;51.166;16.922;2023-10-09T11:45:05;5.00;;;4.05;;
76667;SDS011;65585;51.166;16.922;2023-10-09T11:47:45;6.38;;;4.15;;
76667;SDS011;65585;51.166;16.922;2023-10-09T11:53:40;6.45;;;5.05;;
76667;SDS011;65585;51.166;16.922;2023-10-09T11:56:09;5.90;;;5.25;;
76667;SDS011;65585;51.166;16.922;2023-10-09T11:58:39;4.75;;;4.13;;
76667;SDS011;65585;51.166;16.922;2023-10-09T12:01:12;5.82;;;4.28;;
76667;SDS011;65585;51.166;16.922;2023-10-09T12:03:51;4.85;;;3.97;;
76667;SDS011;65585;51.166;16.922;2023-10-09T12:06:20;5.28;;;4.22;;
76667;SDS011;65585;51.166;16.922;2023-10-09T12:08:49;4.00;;;3.60;;
76667;SDS011;65585;51.166;16.922;2023-10-09T12:11:16;5.10;;;4.30;;
76667;SDS011;65585;51.166;16.922;2023-10-09T12:13:48;5.50;;;4.40;;
76667;SDS011;65585;51.166;16.922;2023-10-09T12:16:15;5.57;;;4.32;;
76667;SDS011;65585;51.166;16.922;2023-10-09T12:18:41;6.00;;;4.22;;
76667;SDS011;65585;51.166;16.922;2023-10-09T12:21:08;8.63;;;4.35;;
76667;SDS011;65585;51.166;16.922;2023-10-09T12:23:41;6.95;;;5.30;;
76667;SDS011;65585;51.166;16.922;2023-10-09T12:26:10;5.35;;;4.70;;
76667;SDS011;65585;51.166;16.922;2023-10-09T12:28:40;6.32;;;4.57;;
76667;SDS011;65585;51.166;16.922;2023-10-09T12:31:14;6.20;;;4.25;;
76667;SDS011;65585;51.166;16.922;2023-10-09T12:33:41;7.00;;;4.85;;
76667;SDS011;65585;51.166;16.922;2023-10-09T12:36:13;6.85;;;4.85;;
76667;SDS011;65585;51.166;16.922;2023-10-09T12:38:46;5.75;;;4.95;;
76667;SDS011;65585;51.166;16.922;2023-10-09T12:41:16;5.68;;;4.63;;
76667;SDS011;65585;51.166;16.922;2023-10-09T12:46:20;6.03;;;4.90;;
76667;SDS011;65585;51.166;16.922;2023-10-09T12:48:51;7.43;;;5.30;;
76667;SDS011;65585;51.166;16.922;2023-10-09T12:51:20;5.22;;;4.68;;
76667;SDS011;65585;51.166;16.922;2023-10-09T12:53:51;5.80;;;4.57;;
76667;SDS011;65585;51.166;16.922;2023-10-09T12:56:23;6.40;;;4.72;;
76667;SDS011;65585;51.166;16.922;2023-10-09T12:59:01;5.68;;;4.80;;
76667;SDS011;65585;51.166;16.922;2023-10-09T13:01:30;7.05;;;5.22;;
76667;SDS011;65585;51.166;16.922;2023-10-09T13:04:08;6.63;;;5.35;;
76667;SDS011;65585;51.166;16.922;2023-10-09T13:06:42;7.63;;;5.55;;
76667;SDS011;65585;51.166;16.922;2023-10-09T13:09:15;8.10;;;5.10;;
76667;SDS011;65585;51.166;16.922;2023-10-09T13:11:50;6.47;;;5.25;;
76667;SDS011;65585;51.166;16.922;2023-10-09T13:14:16;5.90;;;5.13;;
76667;SDS011;65585;51.166;16.922;2023-10-09T13:16:45;5.57;;;4.93;;
76667;SDS011;65585;51.166;16.922;2023-10-09T13:19:12;6.90;;;4.80;;
76667;SDS011;65585;51.166;16.922;2023-10-09T13:21:38;5.93;;;5.05;;
76667;SDS011;65585;51.166;16.922;2023-10-09T13:24:07;7.43;;;4.90;;
76667;SDS011;65585;51.166;16.922;2023-10-09T13:26:43;6.32;;;5.32;;
76667;SDS011;65585;51.166;16.922;2023-10-09T13:29:16;6.85;;;5.53;;
76667;SDS011;65585;51.166;16.922;2023-10-09T13:31:48;6.13;;;5.50;;
76667;SDS011;65585;51.166;16.922;2023-10-09T13:34:16;5.88;;;4.72;;
76667;SDS011;65585;51.166;16.922;2023-10-09T13:36:43;6.03;;;5.15;;
76667;SDS011;65585;51.166;16.922;2023-10-09T13:39:15;8.40;;;6.10;;
76667;SDS011;65585;51.166;16.922;2023-10-09T13:41:51;7.97;;;4.97;;
76667;SDS011;65585;51.166;16.922;2023-10-09T13:44:29;5.50;;;3.95;;
76667;SDS011;65585;51.166;16.922;2023-10-09T13:46:56;5.30;;;4.80;;
76667;SDS011;65585;51.166;16.922;2023-10-09T13:49:24;6.97;;;5.68;;
76667;SDS011;65585;51.166;16.922;2023-10-09T13:51:56;8.85;;;5.65;;
76667;SDS011;65585;51.166;16.922;2023-10-09T13:54:22;7.30;;;5.63;;
76667;SDS011;65585;51.166;16.922;2023-10-09T13:57:05;6.35;;;5.15;;
76667;SDS011;65585;51.166;16.922;2023-10-09T13:59:33;10.00;;;6.38;;
76667;SDS011;65585;51.166;16.922;2023-10-09T14:02:08;9.00;;;6.35;;
76667;SDS011;65585;51.166;16.922;2023-10-09T14:04:35;7.53;;;6.25;;
76667;SDS011;65585;51.166;16.922;2023-10-09T14:07:02;7.30;;;6.00;;
76667;SDS011;65585;51.166;16.922;2023-10-09T14:09:31;8.52;;;5.97;;
76667;SDS011;65585;51.166;16.922;2023-10-09T14:11:58;8.32;;;5.47;;
76667;SDS011;65585;51.166;16.922;2023-10-09T14:14:35;9.40;;;8.40;;
76667;SDS011;65585;51.166;16.922;2023-10-09T14:17:06;7.72;;;6.80;;
76667;SDS011;65585;51.166;16.922;2023-10-09T14:19:37;8.85;;;7.82;;
76667;SDS011;65585;51.166;16.922;2023-10-09T14:22:05;7.15;;;6.53;;
76667;SDS011;65585;51.166;16.922;2023-10-09T14:24:31;5.28;;;4.50;;
76667;SDS011;65585;51.166;16.922;2023-10-09T14:27:00;6.22;;;5.30;;
76667;SDS011;65585;51.166;16.922;2023-10-09T14:29:30;6.43;;;5.82;;
76667;SDS011;65585;51.166;16.922;2023-10-09T14:31:57;7.30;;;4.70;;
76667;SDS011;65585;51.166;16.922;2023-10-09T14:34:27;6.85;;;5.05;;
76667;SDS011;65585;51.166;16.922;2023-10-09T14:37:01;5.15;;;4.47;;
76667;SDS011;65585;51.166;16.922;2023-10-09T14:39:28;7.40;;;5.25;;
76667;SDS011;65585;51.166;16.922;2023-10-09T14:41:55;4.75;;;4.07;;
76667;SDS011;65585;51.166;16.922;2023-10-09T14:44:23;4.60;;;3.70;;
76667;SDS011;65585;51.166;16.922;2023-10-09T14:46:54;5.63;;;4.22;;
76667;SDS011;65585;51.166;16.922;2023-10-09T14:49:20;5.38;;;4.68;;
76667;SDS011;65585;51.166;16.922;2023-10-09T14:51:47;9.15;;;6.45;;
76667;SDS011;65585;51.166;16.922;2023-10-09T14:54:13;13.30;;;9.10;;
76667;SDS011;65585;51.166;16.922;2023-10-09T14:56:44;7.25;;;6.25;;
76667;SDS011;65585;51.166;16.922;2023-10-09T14:59:11;7.78;;;6.60;;
76667;SDS011;65585;51.166;16.922;2023-10-09T15:01:38;6.90;;;5.95;;
76667;SDS011;65585;51.166;16.922;2023-10-09T15:04:04;6.05;;;4.68;;
76667;SDS011;65585;51.166;16.922;2023-10-09T15:06:30;7.05;;;4.90;;
76667;SDS011;65585;51.166;16.922;2023-10-09T15:08:56;6.38;;;5.13;;
76667;SDS011;65585;51.166;16.922;2023-10-09T15:11:24;6.65;;;5.65;;
76667;SDS011;65585;51.166;16.922;2023-10-09T15:13:51;10.38;;;7.22;;
76667;SDS011;65585;51.166;16.922;2023-10-09T15:16:19;8.55;;;7.60;;
76667;SDS011;65585;51.166;16.922;2023-10-09T15:18:47;7.40;;;6.70;;
76667;SDS011;65585;51.166;16.922;2023-10-09T15:21:18;8.45;;;7.55;;
76667;SDS011;65585;51.166;16.922;2023-10-09T15:23:49;7.22;;;5.65;;
76667;SDS011;65585;51.166;16.922;2023-10-09T15:26:18;4.95;;;4.45;;
76667;SDS011;65585;51.166;16.922;2023-10-09T15:28:44;5.90;;;3.72;;
76667;SDS011;65585;51.166;16.922;2023-10-09T15:31:10;5.22;;;4.30;;
76667;SDS011;65585;51.166;16.922;2023-10-09T15:33:44;8.77;;;7.38;;
76667;SDS011;65585;51.166;16.922;2023-10-09T15:36:13;7.03;;;5.85;;
76667;SDS011;65585;51.166;16.922;2023-10-09T15:38:40;6.55;;;4.90;;
76667;SDS011;65585;51.166;16.922;2023-10-09T15:41:06;5.10;;;4.13;;
76667;SDS011;65585;51.166;16.922;2023-10-09T15:43:32;5.32;;;4.00;;
76667;SDS011;65585;51.166;16.922;2023-10-09T15:46:00;5.07;;;4.00;;
76667;SDS011;65585;51.166;16.922;2023-10-09T15:48:26;4.85;;;3.90;;
76667;SDS011;65585;51.166;16.922;2023-10-09T15:50:53;4.90;;;4.13;;
76667;SDS011;65585;51.166;16.922;2023-10-09T15:53:19;4.57;;;3.88;;
76667;SDS011;65585;51.166;16.922;2023-10-09T15:58:17;10.57;;;7.03;;
76667;SDS011;65585;51.166;16.922;2023-10-09T16:00:44;10.00;;;6.40;;
76667;SDS011;65585;51.166;16.922;2023-10-09T16:03:10;9.07;;;6.85;;
76667;SDS011;65585;51.166;16.922;2023-10-09T16:05:40;6.40;;;5.00;;
76667;SDS011;65585;51.166;16.922;2023-10-09T16:08:06;5.13;;;3.80;;
76667;SDS011;65585;51.166;16.922;2023-10-09T16:10:33;6.07;;;4.47;;
76667;SDS011;65585;51.166;16.922;2023-10-09T16:13:01;7.03;;;5.40;;
76667;SDS011;65585;51.166;16.922;2023-10-09T16:15:27;5.88;;;5.15;;
76667;SDS011;65585;51.166;16.922;2023-10-09T16:17:54;6.47;;;5.60;;
76667;SDS011;65585;51.166;16.922;2023-10-09T16:20:32;6.43;;;5.40;;
76667;SDS011;65585;51.166;16.922;2023-10-09T16:22:58;8.40;;;6.45;;
76667;SDS011;65585;51.166;16.922;2023-10-09T16:25:30;7.75;;;6.85;;
76667;SDS011;65585;51.166;16.922;2023-10-09T16:28:02;7.28;;;5.78;;
76667;SDS011;65585;51.166;16.922;2023-10-09T16:30:29;7.57;;;6.05;;
76667;SDS011;65585;51.166;16.922;2023-10-09T16:32:55;9.48;;;7.85;;
76667;SDS011;65585;51.166;16.922;2023-10-09T16:35:26;8.48;;;6.80;;
76667;SDS011;65585;51.166;16.922;2023-10-09T16:37:52;7.85;;;6.45;;